Time;durP1;ratioP1;P1;durP2;ratioP2;P2;SDS_P1;SDS_P2;PMS_P1;PMS_P2;Temp;Humidity;BMP_temperature;BMP_pressure;BME280_temperature;BME280_humidity;BME280_pressure;Samples;Min_cycle;Max_cycle;Signal;HPM_P1;HPM_P2
2021/07/21 00:00:26;;;;;;;2.37;1.23;;;21.90;99.90;;;;;;4961381;28;20250;-90
2021/07/21 00:02:58;;;;;;;4.97;1.20;;;21.90;99.90;;;;;;4976378;28;20237;-89
2021/07/21 00:05:37;;;;;;;1.00;1.00;;;22.10;99.90;;;;;;4960021;28;20218;-88
2021/07/21 00:08:09;;;;;;;2.60;1.10;;;21.70;99.90;;;;;;4957965;29;20250;-88
2021/07/21 00:10:41;;;;;;;2.20;1.10;;;21.60;99.90;;;;;;4965969;28;20310;-89
2021/07/21 00:13:31;;;;;;;2.10;1.00;;;21.80;99.90;;;;;;4976974;28;20211;-90
2021/07/21 00:16:10;;;;;;;1.90;1.23;;;21.90;99.90;;;;;;4977501;28;20238;-89
2021/07/21 00:18:49;;;;;;;2.30;1.10;;;22.20;99.90;;;;;;4976993;28;20203;-89
2021/07/21 00:21:26;;;;;;;1.30;1.20;;;22.40;99.90;;;;;;4978203;28;20221;-92
2021/07/21 00:23:59;;;;;;;3.47;1.03;;;22.20;99.90;;;;;;4978013;28;20207;-91
2021/07/21 00:26:30;;;;;;;2.03;1.27;;;22.10;99.90;;;;;;4977971;28;20241;-90
2021/07/21 00:29:01;;;;;;;1.23;1.13;;;21.60;99.90;;;;;;4976978;28;20293;-90
2021/07/21 00:31:32;;;;;;;1.60;1.50;;;21.90;99.90;;;;;;4977134;28;20289;-89
2021/07/21 00:34:03;;;;;;;1.50;1.27;;;21.90;99.90;;;;;;4977716;28;20738;-88
2021/07/21 00:36:36;;;;;;;2.70;1.20;;;22.20;99.90;;;;;;4977409;28;20754;-89
2021/07/21 00:39:07;;;;;;;1.27;1.17;;;22.50;99.90;;;;;;4977585;28;20302;-89
2021/07/21 00:41:37;;;;;;;1.30;1.20;;;22.90;99.90;;;;;;4987964;28;20215;-90
2021/07/21 00:44:09;;;;;;;2.80;1.53;;;22.90;99.90;;;;;;4984473;28;20202;-90
2021/07/21 00:46:41;;;;;;;2.63;1.50;;;23.10;99.90;;;;;;5012187;28;20206;-90
2021/07/21 00:49:12;;;;;;;1.77;1.50;;;23.40;99.90;;;;;;4984734;28;20262;-90
2021/07/21 00:51:47;;;;;;;1.83;1.60;;;23.40;99.90;;;;;;4965942;28;20240;-89
2021/07/21 00:54:18;;;;;;;1.70;1.47;;;23.50;99.90;;;;;;4989743;28;20217;-92
2021/07/21 00:56:50;;;;;;;3.20;1.53;;;23.50;99.90;;;;;;4945589;28;20254;-93
2021/07/21 00:59:22;;;;;;;1.50;1.40;;;23.60;99.90;;;;;;4999246;28;20206;-94
2021/07/21 01:01:53;;;;;;;2.10;1.13;;;23.20;99.90;;;;;;4975779;28;20740;-96
2021/07/21 01:04:25;;;;;;;3.87;1.10;;;23.70;99.90;;;;;;4985202;28;20269;-91
2021/07/21 01:07:05;;;;;;;1.30;1.17;;;24.00;99.90;;;;;;4980222;28;20323;-92
2021/07/21 01:09:42;;;;;;;1.70;1.57;;;24.70;99.90;;;;;;4981282;28;20293;-96
2021/07/21 01:12:23;;;;;;;2.70;1.50;;;24.60;99.90;;;;;;4983250;28;20209;-96
2021/07/21 01:15:04;;;;;;;2.57;1.47;;;25.20;99.90;;;;;;4969898;28;20230;-96
2021/07/21 01:17:44;;;;;;;1.43;1.23;;;25.70;99.90;;;;;;4978485;28;20237;-96
2021/07/21 01:20:50;;;;;;;2.10;1.10;;;25.90;99.90;;;;;;4994146;28;20215;-96
2021/07/21 01:23:43;;;;;;;2.20;1.40;;;26.20;99.90;;;;;;4968404;28;20217;-96
2021/07/21 01:26:20;;;;;;;1.40;1.10;;;26.70;99.90;;;;;;4974285;28;20215;-96
2021/07/21 01:28:59;;;;;;;2.37;1.17;;;26.80;99.90;;;;;;4995230;28;20261;-96
2021/07/21 01:31:37;;;;;;;1.57;1.37;;;27.10;99.90;;;;;;4989411;28;20230;-96
2021/07/21 01:34:12;;;;;;;2.07;1.50;;;27.10;99.90;;;;;;4949233;29;20597;-96
2021/07/21 01:36:51;;;;;;;1.30;1.20;;;26.50;99.90;;;;;;4987949;28;20261;-96
2021/07/21 01:39:31;;;;;;;1.63;1.37;;;25.80;99.90;;;;;;4969725;28;20222;-96
2021/07/21 01:42:10;;;;;;;1.60;1.50;;;25.90;99.90;;;;;;4970698;28;20247;-96
2021/07/21 01:44:50;;;;;;;1.40;1.30;;;26.20;99.90;;;;;;4973452;28;20297;-96
2021/07/21 01:47:58;;;;;;;2.33;1.43;;;26.50;99.90;;;;;;4989868;28;20202;-96
2021/07/21 01:51:14;;;;;;;2.90;1.30;;;26.80;99.90;;;;;;4992979;28;20242;-96
2021/07/21 01:53:47;;;;;;;1.30;1.20;;;26.80;99.90;;;;;;4998425;28;20202;-96
2021/07/21 01:56:25;;;;;;;2.17;1.57;;;26.80;99.90;;;;;;5012214;28;20277;-95
2021/07/21 01:58:58;;;;;;;4.40;1.30;;;27.00;99.90;;;;;;5001541;28;20239;-95
2021/07/21 02:01:47;;;;;;;2.43;1.40;;;27.20;99.90;;;;;;4985951;28;20425;-96
2021/07/21 02:04:26;;;;;;;1.60;1.50;;;26.50;99.90;;;;;;4985894;28;20271;-96
2021/07/21 02:06:58;;;;;;;2.73;1.80;;;26.30;99.90;;;;;;4987506;28;20222;-96
2021/07/21 02:09:30;;;;;;;2.90;1.63;;;26.50;99.90;;;;;;4987764;28;20285;-96
2021/07/21 02:12:03;;;;;;;2.80;1.30;;;26.40;99.90;;;;;;4988189;28;20261;-96
2021/07/21 02:14:36;;;;;;;2.40;1.30;;;26.00;99.90;;;;;;4998134;28;20195;-96
2021/07/21 02:17:10;;;;;;;1.37;1.27;;;25.30;99.90;;;;;;4996965;28;20218;-96
2021/07/21 02:19:46;;;;;;;1.27;1.17;;;24.90;99.90;;;;;;4998559;28;20195;-95
2021/07/21 02:22:20;;;;;;;1.63;1.10;;;24.10;99.90;;;;;;4980285;28;20191;-96
2021/07/21 02:24:53;;;;;;;1.30;1.20;;;23.50;99.90;;;;;;4988354;28;20242;-96
2021/07/21 02:27:24;;;;;;;1.40;1.30;;;22.90;99.90;;;;;;4981168;28;20203;-96
2021/07/21 02:30:02;;;;;;;1.30;1.20;;;22.50;99.90;;;;;;4976277;28;20233;-96
2021/07/21 02:32:43;;;;;;;2.07;1.33;;;22.30;99.90;;;;;;5000863;28;20345;-96
2021/07/21 02:35:20;;;;;;;1.30;1.20;;;22.00;99.90;;;;;;4999747;28;20238;-96
2021/07/21 02:37:52;;;;;;;1.50;1.10;;;21.70;99.90;;;;;;5003472;28;20242;-96
2021/07/21 02:40:23;;;;;;;4.50;1.83;;;21.50;99.90;;;;;;4999391;28;20655;-96
2021/07/21 02:45:39;;;;;;;1.60;1.47;;;21.20;99.90;;;;;;4978681;28;20219;-96
2021/07/21 02:48:14;;;;;;;1.67;1.50;;;21.10;99.90;;;;;;4982579;28;20219;-96
2021/07/21 02:50:50;;;;;;;2.00;1.50;;;20.90;99.90;;;;;;4981819;28;20241;-96
2021/07/21 02:53:27;;;;;;;1.40;1.10;;;20.80;99.90;;;;;;4963418;28;20230;-96
2021/07/21 02:56:04;;;;;;;1.90;1.50;;;20.70;99.90;;;;;;4963117;29;20274;-96
2021/07/21 02:58:43;;;;;;;1.60;1.43;;;20.60;99.90;;;;;;4978537;28;20237;-96
2021/07/21 03:01:15;;;;;;;7.23;1.50;;;20.60;99.90;;;;;;4974141;28;20278;-96
2021/07/21 03:03:56;;;;;;;2.30;1.60;;;20.50;99.90;;;;;;4998611;28;20206;-96
2021/07/21 03:06:32;;;;;;;2.60;1.50;;;20.40;99.90;;;;;;5020903;28;20217;-96
2021/07/21 03:09:06;;;;;;;1.50;1.40;;;20.20;99.90;;;;;;5020330;28;20198;-96
2021/07/21 03:11:38;;;;;;;5.50;1.37;;;20.10;99.90;;;;;;4989911;28;20229;-96
2021/07/21 03:14:10;;;;;;;2.67;1.80;;;20.00;99.90;;;;;;5006472;28;20234;-96
2021/07/21 03:16:45;;;;;;;1.53;1.43;;;19.90;99.90;;;;;;5002388;28;20277;-96
2021/07/21 03:19:23;;;;;;;1.67;1.20;;;19.90;99.90;;;;;;4961276;29;20211;-96
2021/07/21 03:21:55;;;;;;;3.97;1.83;;;19.80;99.90;;;;;;4943485;29;20211;-96
2021/07/21 03:24:28;;;;;;;2.30;1.63;;;19.60;99.90;;;;;;4961224;29;20212;-96
2021/07/21 03:27:00;;;;;;;1.40;1.30;;;19.50;99.90;;;;;;4976705;28;20214;-96
2021/07/21 03:29:33;;;;;;;4.10;1.57;;;19.50;99.90;;;;;;4980481;28;20242;-96
2021/07/21 03:32:06;;;;;;;1.87;1.50;;;19.40;99.90;;;;;;4978836;28;20289;-96
2021/07/21 03:34:43;;;;;;;1.77;1.47;;;19.30;99.90;;;;;;4975028;28;20735;-95
2021/07/21 03:37:14;;;;;;;2.80;1.40;;;19.30;99.90;;;;;;4978017;28;20648;-92
2021/07/21 03:39:52;;;;;;;2.43;1.63;;;19.30;99.90;;;;;;4979612;28;20302;-96
2021/07/21 03:42:26;;;;;;;1.50;1.27;;;19.20;99.90;;;;;;4979452;28;20579;-96
2021/07/21 03:45:02;;;;;;;1.57;1.43;;;19.10;99.90;;;;;;4980220;28;20256;-96
2021/07/21 03:47:36;;;;;;;1.57;1.47;;;19.00;99.90;;;;;;4980117;28;20218;-96
2021/07/21 03:50:12;;;;;;;1.50;1.40;;;18.90;99.90;;;;;;4978842;28;20230;-96
2021/07/21 03:52:45;;;;;;;5.10;1.77;;;18.80;99.90;;;;;;4978717;28;20218;-96
2021/07/21 03:55:21;;;;;;;1.90;1.67;;;18.70;99.90;;;;;;4978489;28;20215;-95
2021/07/21 03:57:53;;;;;;;2.47;1.30;;;18.60;99.90;;;;;;4978998;28;20210;-95
2021/07/21 04:00:26;;;;;;;2.77;1.30;;;18.50;99.90;;;;;;4979585;28;20215;-96
2021/07/21 04:02:59;;;;;;;2.93;1.23;;;18.40;99.90;;;;;;4977552;28;20227;-95
2021/07/21 04:05:34;;;;;;;2.43;1.47;;;18.40;99.90;;;;;;4978561;28;20712;-95
2021/07/21 04:08:07;;;;;;;2.00;1.50;;;18.20;99.90;;;;;;4961601;28;20660;-95
2021/07/21 04:10:38;;;;;;;2.73;1.73;;;18.10;99.90;;;;;;4978313;28;20266;-93
2021/07/21 04:13:09;;;;;;;1.80;1.30;;;18.00;99.90;;;;;;4977436;28;20316;-93
2021/07/21 04:15:41;;;;;;;3.13;1.37;;;18.00;99.90;;;;;;4979461;28;20239;-92
2021/07/21 04:18:13;;;;;;;2.60;1.27;;;17.90;99.90;;;;;;4978869;28;20298;-94
2021/07/21 04:20:46;;;;;;;2.47;1.30;;;17.90;99.90;;;;;;4978683;28;20351;-94
2021/07/21 04:23:17;;;;;;;4.47;1.10;;;17.70;99.90;;;;;;4995340;28;20666;-95
2021/07/21 04:25:53;;;;;;;1.67;1.20;;;17.70;99.90;;;;;;4982408;28;20278;-95
2021/07/21 04:28:24;;;;;;;1.90;1.10;;;17.60;99.90;;;;;;4998696;28;20214;-95
2021/07/21 04:30:57;;;;;;;2.27;1.27;;;17.50;99.90;;;;;;5000345;28;20266;-95
2021/07/21 04:33:29;;;;;;;1.90;1.00;;;17.50;99.90;;;;;;5000302;28;20212;-94
2021/07/21 04:36:04;;;;;;;2.93;1.30;;;17.40;99.90;;;;;;5001493;28;20230;-95
2021/07/21 04:38:37;;;;;;;2.63;1.20;;;17.30;99.90;;;;;;4996656;28;20199;-95
2021/07/21 04:41:10;;;;;;;1.50;1.00;;;17.20;99.90;;;;;;4981344;28;20234;-95
2021/07/21 04:43:41;;;;;;;5.60;1.20;;;17.10;99.90;;;;;;4978899;28;20203;-96
2021/07/21 04:46:14;;;;;;;2.03;1.00;;;17.00;99.90;;;;;;4976411;28;20657;-95
2021/07/21 04:48:46;;;;;;;1.40;0.87;;;17.00;99.90;;;;;;4985523;28;20217;-95
2021/07/21 04:51:22;;;;;;;1.47;0.90;;;16.90;99.90;;;;;;4998499;28;20238;-96
2021/07/21 04:53:56;;;;;;;1.97;1.10;;;16.90;99.90;;;;;;4998859;28;20205;-94
2021/07/21 04:56:28;;;;;;;1.17;0.77;;;16.90;99.90;;;;;;4998919;28;20206;-95
2021/07/21 04:59:00;;;;;;;1.70;1.13;;;16.70;99.90;;;;;;4998097;28;20202;-94
2021/07/21 05:01:31;;;;;;;1.97;1.30;;;16.60;99.90;;;;;;4994839;28;20284;-94
2021/07/21 05:04:03;;;;;;;1.83;1.10;;;16.60;99.90;;;;;;5000283;28;20203;-93
2021/07/21 05:06:36;;;;;;;2.77;1.10;;;16.60;99.90;;;;;;4977483;28;20281;-93
2021/07/21 05:09:08;;;;;;;5.27;2.17;;;16.50;99.90;;;;;;4977697;28;20712;-94
2021/07/21 05:11:39;;;;;;;4.93;1.83;;;16.50;99.90;;;;;;4981683;28;20721;-95
2021/07/21 05:14:09;;;;;;;1.70;1.20;;;16.40;99.90;;;;;;4978607;28;20251;-94
2021/07/21 05:16:41;;;;;;;1.73;1.00;;;16.30;99.90;;;;;;4979010;28;20218;-95
2021/07/21 05:19:11;;;;;;;2.73;1.03;;;16.20;99.90;;;;;;4980152;28;20668;-94
2021/07/21 05:21:44;;;;;;;2.03;1.20;;;16.20;99.90;;;;;;4982921;28;20297;-94
2021/07/21 05:24:15;;;;;;;3.03;1.07;;;16.10;99.90;;;;;;4997233;28;20431;-94
2021/07/21 05:26:47;;;;;;;1.93;1.00;;;16.00;99.90;;;;;;5008860;28;20203;-95
2021/07/21 05:29:19;;;;;;;2.03;1.20;;;16.10;99.90;;;;;;4997551;28;20211;-95
2021/07/21 05:31:50;;;;;;;1.17;0.90;;;15.90;99.90;;;;;;4991621;28;20259;-95
2021/07/21 05:34:22;;;;;;;1.00;0.90;;;15.90;99.90;;;;;;4993308;28;20238;-95
2021/07/21 05:36:54;;;;;;;2.27;1.00;;;15.80;99.90;;;;;;4984880;28;20257;-94
2021/07/21 05:39:26;;;;;;;3.90;0.90;;;15.80;99.90;;;;;;4985668;28;20230;-95
2021/07/21 05:41:58;;;;;;;2.70;1.20;;;15.80;99.90;;;;;;4984508;28;20211;-95
2021/07/21 05:44:29;;;;;;;2.93;1.00;;;15.80;99.90;;;;;;4998217;28;20242;-95
2021/07/21 05:47:02;;;;;;;1.97;1.10;;;15.80;99.90;;;;;;4989765;28;20233;-93
2021/07/21 05:49:33;;;;;;;4.70;1.13;;;15.80;99.90;;;;;;4978822;28;20218;-93
2021/07/21 05:52:07;;;;;;;4.37;1.10;;;15.80;99.90;;;;;;4977437;28;20254;-94
2021/07/21 05:54:40;;;;;;;2.60;0.83;;;15.80;99.90;;;;;;4978002;28;20217;-93
2021/07/21 05:57:11;;;;;;;4.60;1.00;;;15.80;99.90;;;;;;4977895;28;20676;-95
2021/07/21 05:59:43;;;;;;;4.73;1.07;;;15.70;99.90;;;;;;4977754;28;20207;-94
2021/07/21 06:02:14;;;;;;;3.00;1.07;;;15.80;99.90;;;;;;4976573;28;20642;-94
2021/07/21 06:04:49;;;;;;;3.07;1.10;;;15.70;99.90;;;;;;4976811;28;20230;-94
2021/07/21 06:07:25;;;;;;;2.80;0.73;;;15.70;99.90;;;;;;4977580;28;20206;-94
2021/07/21 06:09:56;;;;;;;4.60;1.20;;;15.80;99.90;;;;;;4961147;28;20285;-93
2021/07/21 06:12:28;;;;;;;4.23;1.33;;;15.70;99.90;;;;;;4976022;28;20317;-93
2021/07/21 06:14:59;;;;;;;3.87;1.10;;;15.80;99.90;;;;;;4976944;28;20242;-94
2021/07/21 06:17:30;;;;;;;3.17;1.37;;;15.70;99.90;;;;;;4987784;28;20222;-94
2021/07/21 06:20:01;;;;;;;3.70;1.10;;;15.70;99.90;;;;;;4990673;28;20554;-94
2021/07/21 06:22:38;;;;;;;3.57;1.10;;;15.70;99.90;;;;;;4976411;28;20234;-94
2021/07/21 06:25:12;;;;;;;5.93;1.20;;;15.80;99.90;;;;;;4976710;28;20213;-95
2021/07/21 06:27:45;;;;;;;2.30;0.90;;;15.70;99.90;;;;;;4976343;28;20229;-95
2021/07/21 06:30:18;;;;;;;3.47;1.00;;;15.70;99.90;;;;;;4976858;28;20245;-95
2021/07/21 06:32:49;;;;;;;2.53;0.97;;;15.70;99.90;;;;;;4975911;28;20297;-96
2021/07/21 06:35:21;;;;;;;1.67;0.80;;;15.60;99.90;;;;;;4977363;28;20238;-94
2021/07/21 06:37:53;;;;;;;3.73;1.13;;;15.60;99.90;;;;;;4976950;28;20206;-94
2021/07/21 06:40:24;;;;;;;4.57;1.20;;;15.60;99.90;;;;;;4975916;28;20250;-95
2021/07/21 06:42:56;;;;;;;2.83;1.20;;;15.50;99.90;;;;;;4975917;28;20214;-95
2021/07/21 06:45:27;;;;;;;2.77;0.93;;;15.50;99.90;;;;;;4976834;28;20215;-95
2021/07/21 06:47:58;;;;;;;2.57;0.80;;;15.50;99.90;;;;;;4977280;28;20286;-94
2021/07/21 06:50:30;;;;;;;4.13;1.13;;;15.40;99.90;;;;;;4976963;28;20207;-94
2021/07/21 06:53:07;;;;;;;4.80;1.20;;;15.50;99.90;;;;;;4976268;28;20644;-94
2021/07/21 06:55:39;;;;;;;2.67;1.07;;;15.40;99.90;;;;;;4976895;28;20245;-93
2021/07/21 06:58:10;;;;;;;5.47;1.00;;;15.50;99.90;;;;;;4960221;28;20293;-94
2021/07/21 07:00:41;;;;;;;3.13;1.37;;;15.50;99.90;;;;;;4977155;28;20258;-95
2021/07/21 07:03:12;;;;;;;2.27;0.80;;;15.50;99.90;;;;;;4975284;28;20221;-94
2021/07/21 07:05:43;;;;;;;3.57;1.03;;;15.50;99.90;;;;;;4976013;28;20207;-94
2021/07/21 07:08:17;;;;;;;3.23;1.10;;;15.50;99.90;;;;;;4988259;28;20238;-94
2021/07/21 07:10:49;;;;;;;4.83;1.27;;;15.50;99.90;;;;;;4995646;28;20241;-93
2021/07/21 07:13:20;;;;;;;4.10;1.27;;;15.50;99.90;;;;;;4994466;28;20242;-94
2021/07/21 07:15:53;;;;;;;2.60;1.03;;;15.50;99.90;;;;;;4993654;28;20210;-94
2021/07/21 07:18:25;;;;;;;5.00;1.37;;;15.50;99.90;;;;;;4976367;28;20660;-94
2021/07/21 07:20:56;;;;;;;3.03;1.10;;;15.60;99.90;;;;;;4976365;28;20267;-94
2021/07/21 07:23:29;;;;;;;1.77;1.20;;;15.60;99.90;;;;;;4971862;28;20227;-94
2021/07/21 07:26:00;;;;;;;3.20;1.37;;;15.60;99.90;;;;;;4978554;28;20230;-95
2021/07/21 07:28:32;;;;;;;3.57;1.27;;;15.60;99.90;;;;;;4979375;28;20219;-95
2021/07/21 07:31:03;;;;;;;2.43;0.87;;;15.50;99.90;;;;;;4961551;29;20611;-95
2021/07/21 07:33:35;;;;;;;5.43;1.40;;;15.50;99.90;;;;;;4962099;28;20262;-95
2021/07/21 07:36:08;;;;;;;3.73;1.30;;;15.50;99.90;;;;;;4980170;28;20211;-95
2021/07/21 07:38:41;;;;;;;4.73;1.37;;;15.50;99.90;;;;;;4980453;28;20290;-95
2021/07/21 07:41:13;;;;;;;2.47;1.03;;;15.40;99.90;;;;;;4980230;28;20687;-95
2021/07/21 07:43:44;;;;;;;4.73;1.20;;;15.40;99.90;;;;;;5005646;28;20190;-94
2021/07/21 07:46:16;;;;;;;2.97;1.00;;;15.40;99.90;;;;;;5001013;28;20203;-95
2021/07/21 07:48:49;;;;;;;3.03;1.10;;;15.30;99.90;;;;;;5000008;28;20203;-95
2021/07/21 07:51:20;;;;;;;5.97;1.37;;;15.30;99.90;;;;;;4981026;28;20249;-94
2021/07/21 07:53:53;;;;;;;5.07;1.20;;;15.50;99.90;;;;;;4980930;28;20715;-96
2021/07/21 07:56:26;;;;;;;3.80;1.00;;;15.50;99.90;;;;;;4980679;28;20282;-95
2021/07/21 07:58:56;;;;;;;2.07;1.10;;;15.50;99.90;;;;;;4980039;28;20250;-95
2021/07/21 08:01:28;;;;;;;2.80;1.00;;;15.50;99.90;;;;;;4962464;28;20210;-93
2021/07/21 08:03:59;;;;;;;3.07;1.03;;;15.50;99.90;;;;;;4979587;28;20281;-95
2021/07/21 08:06:35;;;;;;;4.07;1.30;;;15.50;99.90;;;;;;4980191;28;20762;-95
2021/07/21 08:09:12;;;;;;;3.23;0.93;;;15.40;99.90;;;;;;4980984;28;20214;-94
2021/07/21 08:11:48;;;;;;;5.93;1.40;;;15.50;99.90;;;;;;4994888;28;20206;-93
2021/07/21 08:14:19;;;;;;;4.07;0.90;;;15.50;99.90;;;;;;4998985;28;20225;-94
2021/07/21 08:16:51;;;;;;;2.27;0.97;;;15.50;99.90;;;;;;4998752;28;20281;-94
2021/07/21 08:19:23;;;;;;;6.27;1.40;;;15.50;99.90;;;;;;4998832;28;20215;-94
2021/07/21 08:21:57;;;;;;;4.77;1.17;;;15.50;99.90;;;;;;4998024;28;20199;-95
2021/07/21 08:24:31;;;;;;;2.93;1.00;;;15.50;99.90;;;;;;4982629;28;20257;-95
2021/07/21 08:27:03;;;;;;;3.97;1.20;;;15.40;99.90;;;;;;4980075;28;20556;-95
2021/07/21 08:29:42;;;;;;;6.63;1.20;;;15.40;99.90;;;;;;4979480;28;20223;-95
2021/07/21 08:32:14;;;;;;;2.20;0.90;;;15.40;99.90;;;;;;4978879;28;20245;-95
2021/07/21 08:34:47;;;;;;;4.57;1.30;;;15.40;99.90;;;;;;4979657;28;20219;-95
2021/07/21 08:37:18;;;;;;;2.97;0.93;;;15.40;99.90;;;;;;4979225;28;20239;-95
2021/07/21 08:39:51;;;;;;;2.67;1.00;;;15.40;99.90;;;;;;4979025;28;20246;-95
2021/07/21 08:42:23;;;;;;;3.33;1.20;;;15.40;99.90;;;;;;4978293;28;20210;-95
2021/07/21 08:44:54;;;;;;;3.20;1.23;;;15.40;99.90;;;;;;4978676;28;20242;-95
2021/07/21 08:47:25;;;;;;;4.80;1.10;;;15.30;99.90;;;;;;4979057;28;20245;-96
2021/07/21 08:49:57;;;;;;;3.57;1.07;;;15.40;99.90;;;;;;4978897;28;20298;-96
2021/07/21 08:52:30;;;;;;;3.67;1.13;;;15.40;99.90;;;;;;4977891;28;20206;-95
2021/07/21 08:55:04;;;;;;;1.80;1.00;;;15.40;99.90;;;;;;4978517;28;20211;-95
2021/07/21 08:57:36;;;;;;;3.60;1.00;;;15.40;99.90;;;;;;4978537;28;20214;-95
2021/07/21 09:00:10;;;;;;;3.17;1.30;;;15.40;99.90;;;;;;4978242;28;20215;-94
2021/07/21 09:02:41;;;;;;;3.67;1.10;;;15.40;99.90;;;;;;4976696;28;20608;-95
2021/07/21 09:05:16;;;;;;;2.17;0.83;;;15.30;99.90;;;;;;4978292;28;20218;-94
2021/07/21 09:07:49;;;;;;;5.20;1.03;;;15.40;99.90;;;;;;4977895;28;20237;-94
2021/07/21 09:10:22;;;;;;;2.27;1.03;;;15.30;99.90;;;;;;4978092;28;20294;-94
2021/07/21 09:12:53;;;;;;;2.57;0.90;;;15.20;99.90;;;;;;4977449;28;20261;-95
2021/07/21 09:15:25;;;;;;;3.87;0.93;;;15.30;99.90;;;;;;4978600;28;20266;-95
2021/07/21 09:18:10;;;;;;;4.30;1.00;;;15.30;99.90;;;;;;4977817;28;20243;-95
2021/07/21 09:20:43;;;;;;;2.30;1.03;;;15.30;99.90;;;;;;4977775;28;20988;-95
2021/07/21 09:23:14;;;;;;;5.00;1.40;;;15.30;99.90;;;;;;4976444;28;20616;-95
2021/07/21 09:25:49;;;;;;;3.37;1.10;;;15.30;99.90;;;;;;4977961;28;20235;-95
2021/07/21 09:28:21;;;;;;;2.40;0.90;;;15.40;99.90;;;;;;4977884;28;20214;-95
2021/07/21 09:30:52;;;;;;;3.23;0.90;;;15.30;99.90;;;;;;4997254;28;20233;-96
2021/07/21 09:33:23;;;;;;;4.57;1.00;;;15.30;99.90;;;;;;4997631;28;20253;-96
2021/07/21 09:35:56;;;;;;;2.40;0.93;;;15.30;99.90;;;;;;4992908;28;20250;-96
2021/07/21 09:38:31;;;;;;;3.07;0.90;;;15.20;99.90;;;;;;4970324;28;20306;-96
2021/07/21 09:41:06;;;;;;;2.83;1.27;;;15.30;99.90;;;;;;4989532;28;20219;-95
2021/07/21 09:43:38;;;;;;;1.63;0.80;;;15.30;99.90;;;;;;4976175;28;20199;-96
2021/07/21 09:46:12;;;;;;;1.93;1.10;;;15.20;99.90;;;;;;4997404;28;20195;-94
2021/07/21 09:48:49;;;;;;;3.90;1.30;;;15.20;99.90;;;;;;4984852;28;20569;-96
2021/07/21 09:51:29;;;;;;;3.57;1.00;;;15.10;99.90;;;;;;4982153;28;20203;-96
2021/07/21 09:54:14;;;;;;;2.70;0.90;;;15.20;99.90;;;;;;4982505;28;20242;-96
2021/07/21 09:56:50;;;;;;;3.33;1.13;;;15.10;99.90;;;;;;4983190;28;20223;-94
2021/07/21 09:59:25;;;;;;;4.10;0.93;;;15.20;99.90;;;;;;4983763;28;20705;-95
2021/07/21 10:01:57;;;;;;;4.27;1.10;;;15.10;99.90;;;;;;4980085;28;20209;-93
2021/07/21 10:04:36;;;;;;;2.80;1.03;;;15.10;99.90;;;;;;4998013;28;20249;-94
2021/07/21 10:07:22;;;;;;;3.77;0.90;;;15.10;99.90;;;;;;4980572;28;20720;-95
2021/07/21 10:09:54;;;;;;;3.30;0.93;;;15.20;99.90;;;;;;4977661;28;20234;-95
2021/07/21 10:12:27;;;;;;;3.47;1.30;;;15.20;99.90;;;;;;4978268;28;20215;-94
2021/07/21 10:14:59;;;;;;;4.10;0.93;;;15.20;99.90;;;;;;4985965;28;20238;-93
2021/07/21 10:17:31;;;;;;;3.77;1.00;;;15.20;99.90;;;;;;4989325;28;20207;-94
2021/07/21 10:20:02;;;;;;;3.57;1.10;;;15.20;99.90;;;;;;4986114;28;20273;-94
2021/07/21 10:22:34;;;;;;;4.33;1.20;;;15.20;99.90;;;;;;5009868;28;20214;-94
2021/07/21 10:25:05;;;;;;;3.23;1.07;;;15.10;99.90;;;;;;5005759;28;20208;-95
2021/07/21 10:27:38;;;;;;;2.70;0.83;;;15.20;99.90;;;;;;4981859;28;20199;-93
2021/07/21 10:30:11;;;;;;;4.77;1.10;;;15.20;99.90;;;;;;4996803;28;20206;-95
2021/07/21 10:32:42;;;;;;;4.17;0.90;;;15.30;99.90;;;;;;4995723;28;20207;-95
2021/07/21 10:35:14;;;;;;;5.90;1.13;;;15.20;99.90;;;;;;4980239;28;20262;-95
2021/07/21 10:37:45;;;;;;;7.17;1.23;;;15.10;99.90;;;;;;4960182;28;20241;-95
2021/07/21 10:40:18;;;;;;;3.23;1.10;;;15.00;99.90;;;;;;4977078;28;20302;-95
2021/07/21 10:42:55;;;;;;;4.27;1.10;;;15.00;99.90;;;;;;4976561;28;20297;-95
2021/07/21 10:45:28;;;;;;;5.23;1.10;;;15.00;99.90;;;;;;4977327;28;20736;-96
2021/07/21 10:48:04;;;;;;;2.57;1.00;;;15.00;99.90;;;;;;4976969;28;20226;-95
2021/07/21 10:50:46;;;;;;;2.97;1.20;;;15.10;99.90;;;;;;4976727;28;20298;-95
2021/07/21 10:53:47;;;;;;;5.07;0.97;;;15.00;99.90;;;;;;4976563;28;20241;-94
2021/07/21 10:59:25;;;;;;;1.40;0.93;;;15.20;99.90;;;;;;4976963;28;20233;-94
2021/07/21 11:02:03;;;;;;;5.47;1.10;;;15.10;99.90;;;;;;4987347;28;20604;-94
2021/07/21 11:04:44;;;;;;;5.00;0.90;;;15.00;99.90;;;;;;4982056;28;20693;-94
2021/07/21 11:07:16;;;;;;;3.20;1.00;;;15.00;99.90;;;;;;4960587;29;20314;-94
2021/07/21 11:09:51;;;;;;;3.03;0.87;;;14.80;99.90;;;;;;4961237;29;20243;-94
2021/07/21 11:12:34;;;;;;;2.13;0.63;;;14.90;99.90;;;;;;4960121;28;20235;-94
2021/07/21 11:15:08;;;;;;;1.60;0.80;;;14.90;99.90;;;;;;4972635;28;20321;-94
2021/07/21 11:17:39;;;;;;;3.07;1.17;;;14.90;99.90;;;;;;4979562;28;20770;-93
2021/07/21 11:20:13;;;;;;;3.90;1.00;;;15.00;99.90;;;;;;4980366;28;20243;-94
2021/07/21 11:22:44;;;;;;;2.47;0.80;;;14.90;99.90;;;;;;4979159;28;20203;-94
2021/07/21 11:25:23;;;;;;;3.17;1.10;;;14.90;99.90;;;;;;4979680;28;20286;-94
2021/07/21 11:27:55;;;;;;;2.13;0.63;;;14.90;99.90;;;;;;4980191;28;20262;-94
2021/07/21 11:30:44;;;;;;;5.30;1.10;;;15.00;99.90;;;;;;4979750;28;20242;-95
2021/07/21 11:33:44;;;;;;;4.40;1.00;;;15.00;99.90;;;;;;4979267;28;20227;-95
2021/07/21 11:36:30;;;;;;;1.93;0.87;;;15.00;99.90;;;;;;4969738;28;20223;-95
2021/07/21 11:39:01;;;;;;;2.17;0.77;;;15.00;99.90;;;;;;4960259;29;20239;-95
2021/07/21 11:41:50;;;;;;;5.17;1.07;;;15.00;99.90;;;;;;4965417;28;20625;-95
2021/07/21 11:44:28;;;;;;;3.80;0.90;;;14.90;99.90;;;;;;4981060;28;20294;-94
2021/07/21 11:47:03;;;;;;;3.27;1.00;;;15.00;99.90;;;;;;4962990;28;20358;-94
2021/07/21 11:49:36;;;;;;;2.67;0.80;;;15.00;99.90;;;;;;4979795;28;20222;-95
2021/07/21 11:52:08;;;;;;;2.27;0.80;;;14.90;99.90;;;;;;4979266;28;20237;-94
2021/07/21 11:54:40;;;;;;;3.63;0.90;;;14.80;99.90;;;;;;4979471;28;20231;-95
2021/07/21 11:57:14;;;;;;;2.17;0.87;;;14.80;99.90;;;;;;4979699;28;20222;-95
2021/07/21 11:59:48;;;;;;;1.47;0.70;;;14.90;99.90;;;;;;4979887;28;20214;-95
2021/07/21 12:02:24;;;;;;;1.23;0.80;;;15.00;99.90;;;;;;4979109;28;20210;-94
2021/07/21 12:04:56;;;;;;;2.50;0.87;;;15.00;99.90;;;;;;4979545;28;20723;-94
2021/07/21 12:07:34;;;;;;;3.07;0.70;;;15.00;99.90;;;;;;4963261;28;20215;-95
2021/07/21 12:10:12;;;;;;;2.83;0.77;;;15.00;99.90;;;;;;4979638;28;20742;-94
2021/07/21 12:12:43;;;;;;;1.67;0.70;;;14.90;99.90;;;;;;4979918;28;20285;-95
2021/07/21 12:15:19;;;;;;;2.77;0.90;;;14.90;99.90;;;;;;4988369;28;20246;-94
2021/07/21 12:17:53;;;;;;;2.27;0.80;;;15.00;99.90;;;;;;4999497;28;20237;-94
2021/07/21 12:20:24;;;;;;;2.13;0.70;;;15.00;99.90;;;;;;4998462;28;20199;-95
2021/07/21 12:22:59;;;;;;;2.57;0.80;;;15.00;99.90;;;;;;4985380;28;20217;-93
2021/07/21 12:25:33;;;;;;;2.83;0.90;;;15.00;99.90;;;;;;4982288;28;20278;-95
2021/07/21 12:28:07;;;;;;;1.77;0.83;;;15.00;99.90;;;;;;4964375;28;20238;-95
2021/07/21 12:30:38;;;;;;;2.57;0.87;;;15.00;99.90;;;;;;4981230;28;20274;-95
2021/07/21 12:33:13;;;;;;;2.33;1.00;;;14.90;99.90;;;;;;4982348;28;20218;-95
2021/07/21 12:35:45;;;;;;;1.47;0.67;;;14.90;99.90;;;;;;4984711;28;20293;-95
2021/07/21 12:38:16;;;;;;;1.67;0.63;;;15.00;99.90;;;;;;4965246;28;20246;-95
2021/07/21 12:40:48;;;;;;;5.47;0.90;;;15.00;99.90;;;;;;4995437;28;20201;-94
2021/07/21 12:43:28;;;;;;;1.27;0.73;;;15.10;99.90;;;;;;4993068;28;20234;-94
2021/07/21 12:45:58;;;;;;;2.90;1.00;;;15.00;99.90;;;;;;4994582;28;20215;-95
2021/07/21 12:48:32;;;;;;;2.80;1.17;;;15.00;99.90;;;;;;4996793;28;20219;-95
2021/07/21 12:51:08;;;;;;;5.50;1.10;;;15.00;99.90;;;;;;4993054;28;20234;-95
2021/07/21 12:53:40;;;;;;;1.97;0.73;;;14.90;99.90;;;;;;4984977;28;20662;-95
2021/07/21 12:56:11;;;;;;;3.70;0.97;;;14.80;99.90;;;;;;4983113;28;20265;-95
2021/07/21 12:58:42;;;;;;;3.37;1.00;;;14.80;99.90;;;;;;4981228;28;20242;-95
2021/07/21 13:01:13;;;;;;;3.20;0.90;;;14.80;99.90;;;;;;4981043;28;20219;-94
2021/07/21 13:03:52;;;;;;;1.60;0.80;;;14.90;99.90;;;;;;4979642;28;20207;-95
2021/07/21 13:06:28;;;;;;;1.77;0.77;;;14.90;99.90;;;;;;4979339;28;20211;-94
2021/07/21 13:08:59;;;;;;;3.87;0.83;;;15.10;99.90;;;;;;4978967;28;20214;-94
2021/07/21 13:11:31;;;;;;;3.00;0.70;;;15.10;99.90;;;;;;4977066;28;20214;-94
2021/07/21 13:14:02;;;;;;;4.27;0.90;;;15.10;99.90;;;;;;4977704;28;20226;-95
2021/07/21 13:16:34;;;;;;;2.37;1.30;;;15.10;99.90;;;;;;4978278;28;20242;-94
2021/07/21 13:19:10;;;;;;;4.30;1.03;;;15.20;99.90;;;;;;4978156;28;20238;-94
2021/07/21 13:21:47;;;;;;;1.77;0.80;;;15.20;99.90;;;;;;4977297;28;20241;-95
2021/07/21 13:24:20;;;;;;;1.73;0.70;;;15.10;99.90;;;;;;4978545;28;20656;-95
2021/07/21 13:26:56;;;;;;;4.17;0.83;;;15.10;99.90;;;;;;4977117;28;20792;-94
2021/07/21 13:29:31;;;;;;;3.03;0.80;;;15.00;99.90;;;;;;4961801;28;20245;-94